sensor_id;sensor_type;location;lat;lon;timestamp;P1;durP1;ratioP1;P2;durP2;ratioP2
62457;SDS011;48509;52.122;5.250;2023-04-01T00:01:26;36.21;;;14.8;;
62457;SDS011;48509;52.122;5.250;2023-04-01T00:06:15;35.4;;;15.5;;
62457;SDS011;48509;52.122;5.250;2023-04-01T00:07:53;38.9;;;14.9;;
62457;SDS011;48509;52.122;5.250;2023-04-01T00:09:29;37.6;;;15.2;;
62457;SDS011;48509;52.122;5.250;2023-04-01T00:11:05;56.6;;;20.5;;
62457;SDS011;48509;52.122;5.250;2023-04-01T00:15:55;60.9;;;23.2;;
62457;SDS011;48509;52.122;5.250;2023-04-01T00:22:22;36.6;;;16.0;;
62457;SDS011;48509;52.122;5.250;2023-04-01T00:23:59;41.2;;;17.11;;
62457;SDS011;48509;52.122;5.250;2023-04-01T00:27:11;52.6;;;17.7;;
62457;SDS011;48509;52.122;5.250;2023-04-01T00:28:48;37.9;;;16.2;;
62457;SDS011;48509;52.122;5.250;2023-04-01T00:30:24;34.6;;;15.6;;
62457;SDS011;48509;52.122;5.250;2023-04-01T00:32:01;39.9;;;15.9;;
62457;SDS011;48509;52.122;5.250;2023-04-01T00:36:51;28.9;;;13.1;;
62457;SDS011;48509;52.122;5.250;2023-04-01T00:38:28;32.4;;;13.4;;
62457;SDS011;48509;52.122;5.250;2023-04-01T00:42:01;28.1;;;13.0;;
62457;SDS011;48509;52.122;5.250;2023-04-01T00:43:39;29.0;;;12.3;;
62457;SDS011;48509;52.122;5.250;2023-04-01T00:45:25;37.21;;;16.3;;
62457;SDS011;48509;52.122;5.250;2023-04-01T00:47:05;37.21;;;16.3;;
62457;SDS011;48509;52.122;5.250;2023-04-01T00:52:01;34.5;;;15.3;;
62457;SDS011;48509;52.122;5.250;2023-04-01T00:53:40;28.5;;;14.1;;
62457;SDS011;48509;52.122;5.250;2023-04-01T00:55:21;31.6;;;14.6;;
62457;SDS011;48509;52.122;5.250;2023-04-01T00:58:40;38.5;;;16.2;;
62457;SDS011;48509;52.122;5.250;2023-04-01T01:00:20;37.6;;;17.0;;
62457;SDS011;48509;52.122;5.250;2023-04-01T01:01:56;41.5;;;18.11;;
62457;SDS011;48509;52.122;5.250;2023-04-01T01:03:32;38.4;;;16.3;;
62457;SDS011;48509;52.122;5.250;2023-04-01T01:06:49;38.5;;;17.7;;
62457;SDS011;48509;52.122;5.250;2023-04-01T01:10:38;27.4;;;13.6;;
62457;SDS011;48509;52.122;5.250;2023-04-01T01:12:17;35.81;;;17.8;;
62457;SDS011;48509;52.122;5.250;2023-04-01T01:13:56;29.2;;;15.5;;
62457;SDS011;48509;52.122;5.250;2023-04-01T01:17:25;23.9;;;12.7;;
62457;SDS011;48509;52.122;5.250;2023-04-01T01:19:18;23.0;;;13.5;;
62457;SDS011;48509;52.122;5.250;2023-04-01T01:23:46;29.4;;;15.3;;
62457;SDS011;48509;52.122;5.250;2023-04-01T01:26:22;28.5;;;15.3;;
62457;SDS011;48509;52.122;5.250;2023-04-01T01:28:37;22.2;;;11.9;;
62457;SDS011;48509;52.122;5.250;2023-04-01T01:32:21;22.8;;;12.3;;
62457;SDS011;48509;52.122;5.250;2023-04-01T01:35:14;17.0;;;8.0;;
62457;SDS011;48509;52.122;5.250;2023-04-01T01:36:59;25.1;;;12.9;;
62457;SDS011;48509;52.122;5.250;2023-04-01T01:40:19;19.2;;;9.9;;
62457;SDS011;48509;52.122;5.250;2023-04-01T01:43:36;14.7;;;8.71;;
62457;SDS011;48509;52.122;5.250;2023-04-01T01:45:16;16.61;;;9.0;;
62457;SDS011;48509;52.122;5.250;2023-04-01T01:48:34;11.2;;;7.5;;
62457;SDS011;48509;52.122;5.250;2023-04-01T01:50:12;17.8;;;11.1;;
62457;SDS011;48509;52.122;5.250;2023-04-01T01:51:50;13.7;;;7.7;;
62457;SDS011;48509;52.122;5.250;2023-04-01T01:57:03;14.3;;;8.4;;
62457;SDS011;48509;52.122;5.250;2023-04-01T01:58:42;13.0;;;7.8;;
62457;SDS011;48509;52.122;5.250;2023-04-01T02:01:58;14.1;;;8.6;;
62457;SDS011;48509;52.122;5.250;2023-04-01T02:05:16;12.4;;;8.2;;
62457;SDS011;48509;52.122;5.250;2023-04-01T02:06:55;13.2;;;7.4;;
62457;SDS011;48509;52.122;5.250;2023-04-01T02:08:38;12.4;;;8.2;;
62457;SDS011;48509;52.122;5.250;2023-04-01T02:13:40;16.0;;;8.9;;
62457;SDS011;48509;52.122;5.250;2023-04-01T02:15:22;16.8;;;11.2;;
62457;SDS011;48509;52.122;5.250;2023-04-01T02:17:04;15.3;;;7.7;;
62457;SDS011;48509;52.122;5.250;2023-04-01T02:18:44;13.5;;;8.1;;
62457;SDS011;48509;52.122;5.250;2023-04-01T02:22:05;18.2;;;10.0;;
62457;SDS011;48509;52.122;5.250;2023-04-01T02:23:46;14.6;;;9.5;;
62457;SDS011;48509;52.122;5.250;2023-04-01T02:27:03;19.5;;;9.31;;
62457;SDS011;48509;52.122;5.250;2023-04-01T02:30:19;12.6;;;7.3;;
62457;SDS011;48509;52.122;5.250;2023-04-01T02:31:56;18.0;;;11.3;;
62457;SDS011;48509;52.122;5.250;2023-04-01T02:36:49;13.8;;;8.2;;
62457;SDS011;48509;52.122;5.250;2023-04-01T02:38:26;20.11;;;10.9;;
62457;SDS011;48509;52.122;5.250;2023-04-01T02:40:03;12.6;;;7.4;;
62457;SDS011;48509;52.122;5.250;2023-04-01T02:41:43;16.8;;;8.4;;
62457;SDS011;48509;52.122;5.250;2023-04-01T02:44:57;11.8;;;6.4;;
62457;SDS011;48509;52.122;5.250;2023-04-01T02:46:33;15.5;;;7.9;;
62457;SDS011;48509;52.122;5.250;2023-04-01T02:48:09;11.9;;;6.2;;
62457;SDS011;48509;52.122;5.250;2023-04-01T02:52:58;9.71;;;5.8;;
62457;SDS011;48509;52.122;5.250;2023-04-01T02:54:34;12.6;;;7.1;;
62457;SDS011;48509;52.122;5.250;2023-04-01T02:57:47;11.1;;;6.5;;
62457;SDS011;48509;52.122;5.250;2023-04-01T02:59:24;14.1;;;7.9;;
62457;SDS011;48509;52.122;5.250;2023-04-01T03:01:00;11.2;;;6.2;;
62457;SDS011;48509;52.122;5.250;2023-04-01T03:05:49;9.71;;;6.1;;
62457;SDS011;48509;52.122;5.250;2023-04-01T03:09:01;16.11;;;7.4;;
62457;SDS011;48509;52.122;5.250;2023-04-01T03:12:14;12.2;;;8.0;;
62457;SDS011;48509;52.122;5.250;2023-04-01T03:13:50;14.8;;;9.21;;
62457;SDS011;48509;52.122;5.250;2023-04-01T03:15:26;14.6;;;9.4;;
62457;SDS011;48509;52.122;5.250;2023-04-01T03:18:38;12.2;;;8.31;;
62457;SDS011;48509;52.122;5.250;2023-04-01T03:21:51;14.4;;;9.1;;
62457;SDS011;48509;52.122;5.250;2023-04-01T03:26:42;13.8;;;10.0;;
62457;SDS011;48509;52.122;5.250;2023-04-01T03:28:18;18.0;;;12.8;;
62457;SDS011;48509;52.122;5.250;2023-04-01T03:29:54;17.11;;;13.1;;
62457;SDS011;48509;52.122;5.250;2023-04-01T03:33:06;14.4;;;11.6;;
62457;SDS011;48509;52.122;5.250;2023-04-01T03:36:19;24.2;;;15.2;;
62457;SDS011;48509;52.122;5.250;2023-04-01T03:39:31;16.9;;;13.3;;
62457;SDS011;48509;52.122;5.250;2023-04-01T03:41:07;16.11;;;13.2;;
62457;SDS011;48509;52.122;5.250;2023-04-01T03:42:47;17.61;;;13.5;;
62457;SDS011;48509;52.122;5.250;2023-04-01T03:46:00;19.41;;;14.4;;
62457;SDS011;48509;52.122;5.250;2023-04-01T03:47:37;15.9;;;13.4;;
62457;SDS011;48509;52.122;5.250;2023-04-01T03:49:13;23.3;;;14.8;;
62457;SDS011;48509;52.122;5.250;2023-04-01T03:54:01;20.8;;;15.3;;
62457;SDS011;48509;52.122;5.250;2023-04-01T04:00:27;14.2;;;12.2;;
62457;SDS011;48509;52.122;5.250;2023-04-01T04:02:04;11.3;;;10.1;;
62457;SDS011;48509;52.122;5.250;2023-04-01T04:03:40;14.3;;;12.4;;
62457;SDS011;48509;52.122;5.250;2023-04-01T04:06:52;14.8;;;12.2;;
62457;SDS011;48509;52.122;5.250;2023-04-01T04:08:29;13.7;;;11.7;;
62457;SDS011;48509;52.122;5.250;2023-04-01T04:10:06;17.2;;;12.9;;
62457;SDS011;48509;52.122;5.250;2023-04-01T04:18:11;19.8;;;14.9;;
62457;SDS011;48509;52.122;5.250;2023-04-01T04:21:23;14.6;;;12.2;;
62457;SDS011;48509;52.122;5.250;2023-04-01T04:27:51;23.0;;;15.5;;
62457;SDS011;48509;52.122;5.250;2023-04-01T04:29:27;20.6;;;13.8;;
62457;SDS011;48509;52.122;5.250;2023-04-01T04:31:03;14.4;;;12.5;;
62457;SDS011;48509;52.122;5.250;2023-04-01T04:32:40;23.0;;;15.0;;
62457;SDS011;48509;52.122;5.250;2023-04-01T04:35:54;21.0;;;12.6;;
62457;SDS011;48509;52.122;5.250;2023-04-01T04:39:08;12.9;;;10.0;;
62457;SDS011;48509;52.122;5.250;2023-04-01T04:45:33;13.7;;;9.6;;
62457;SDS011;48509;52.122;5.250;2023-04-01T04:48:45;10.5;;;8.71;;
62457;SDS011;48509;52.122;5.250;2023-04-01T04:51:59;10.21;;;8.1;;
62457;SDS011;48509;52.122;5.250;2023-04-01T04:56:48;10.5;;;8.71;;
62457;SDS011;48509;52.122;5.250;2023-04-01T04:58:27;15.8;;;10.7;;
62457;SDS011;48509;52.122;5.250;2023-04-01T05:04:53;12.0;;;9.71;;
62457;SDS011;48509;52.122;5.250;2023-04-01T05:06:29;16.61;;;12.1;;
62457;SDS011;48509;52.122;5.250;2023-04-01T05:09:41;14.7;;;11.8;;
62457;SDS011;48509;52.122;5.250;2023-04-01T05:12:55;13.6;;;11.4;;
62457;SDS011;48509;52.122;5.250;2023-04-01T05:19:20;12.1;;;10.8;;
62457;SDS011;48509;52.122;5.250;2023-04-01T05:24:07;11.5;;;10.0;;
62457;SDS011;48509;52.122;5.250;2023-04-01T05:25:44;20.8;;;14.2;;
62457;SDS011;48509;52.122;5.250;2023-04-01T05:30:31;12.5;;;11.2;;
62457;SDS011;48509;52.122;5.250;2023-04-01T05:35:19;17.61;;;13.4;;
62457;SDS011;48509;52.122;5.250;2023-04-01T05:40:08;13.3;;;11.7;;
62457;SDS011;48509;52.122;5.250;2023-04-01T05:41:45;16.61;;;13.4;;
62457;SDS011;48509;52.122;5.250;2023-04-01T05:44:57;14.8;;;12.1;;
62457;SDS011;48509;52.122;5.250;2023-04-01T05:46:33;13.3;;;11.9;;
62457;SDS011;48509;52.122;5.250;2023-04-01T05:48:09;24.3;;;15.4;;
62457;SDS011;48509;52.122;5.250;2023-04-01T05:51:21;15.3;;;12.5;;
62457;SDS011;48509;52.122;5.250;2023-04-01T05:52:58;14.4;;;12.9;;
62457;SDS011;48509;52.122;5.250;2023-04-01T05:54:35;14.4;;;12.9;;
62457;SDS011;48509;52.122;5.250;2023-04-01T05:57:47;19.8;;;13.3;;
62457;SDS011;48509;52.122;5.250;2023-04-01T05:59:23;15.7;;;13.2;;
62457;SDS011;48509;52.122;5.250;2023-04-01T06:07:28;15.9;;;13.5;;
62457;SDS011;48509;52.122;5.250;2023-04-01T06:09:07;17.3;;;13.5;;
62457;SDS011;48509;52.122;5.250;2023-04-01T06:16:29;14.4;;;12.9;;
62457;SDS011;48509;52.122;5.250;2023-04-01T06:18:21;17.5;;;13.2;;
62457;SDS011;48509;52.122;5.250;2023-04-01T06:21:04;25.1;;;16.9;;
62457;SDS011;48509;52.122;5.250;2023-04-01T06:23:06;20.3;;;15.8;;
62457;SDS011;48509;52.122;5.250;2023-04-01T06:27:07;20.9;;;15.0;;
62457;SDS011;48509;52.122;5.250;2023-04-01T06:33:02;13.6;;;12.2;;
62457;SDS011;48509;52.122;5.250;2023-04-01T06:35:45;26.2;;;17.5;;
62457;SDS011;48509;52.122;5.250;2023-04-01T06:41:11;15.5;;;13.0;;
62457;SDS011;48509;52.122;5.250;2023-04-01T06:44:14;18.5;;;13.7;;
62457;SDS011;48509;52.122;5.250;2023-04-01T06:47:49;13.5;;;10.6;;
62457;SDS011;48509;52.122;5.250;2023-04-01T06:49:41;13.8;;;11.7;;
62457;SDS011;48509;52.122;5.250;2023-04-01T06:57:03;9.81;;;8.81;;
62457;SDS011;48509;52.122;5.250;2023-04-01T07:02:22;9.1;;;8.0;;
62457;SDS011;48509;52.122;5.250;2023-04-01T07:16:05;9.0;;;7.1;;
62457;SDS011;48509;52.122;5.250;2023-04-01T07:21:20;9.21;;;7.5;;
62457;SDS011;48509;52.122;5.250;2023-04-01T07:23:02;8.71;;;7.8;;
62457;SDS011;48509;52.122;5.250;2023-04-01T07:26:21;12.1;;;8.71;;
62457;SDS011;48509;52.122;5.250;2023-04-01T07:34:55;14.6;;;10.4;;
62457;SDS011;48509;52.122;5.250;2023-04-01T07:40:26;11.1;;;9.9;;
62457;SDS011;48509;52.122;5.250;2023-04-01T07:42:15;11.1;;;9.9;;
62457;SDS011;48509;52.122;5.250;2023-04-01T07:44:02;16.0;;;11.1;;
62457;SDS011;48509;52.122;5.250;2023-04-01T07:51:21;15.3;;;11.6;;
62457;SDS011;48509;52.122;5.250;2023-04-01T07:54:53;13.9;;;11.9;;
62457;SDS011;48509;52.122;5.250;2023-04-01T07:56:38;12.9;;;11.2;;
62457;SDS011;48509;52.122;5.250;2023-04-01T08:00:11;18.91;;;13.8;;
62457;SDS011;48509;52.122;5.250;2023-04-01T08:01:55;13.5;;;11.0;;
62457;SDS011;48509;52.122;5.250;2023-04-01T08:05:49;23.2;;;13.8;;
62457;SDS011;48509;52.122;5.250;2023-04-01T08:07:33;19.3;;;13.2;;
62457;SDS011;48509;52.122;5.250;2023-04-01T08:11:08;24.4;;;15.6;;
62457;SDS011;48509;52.122;5.250;2023-04-01T08:16:32;16.4;;;11.9;;
62457;SDS011;48509;52.122;5.250;2023-04-01T08:21:57;17.3;;;12.7;;
62457;SDS011;48509;52.122;5.250;2023-04-01T08:25:20;18.41;;;13.7;;
62457;SDS011;48509;52.122;5.250;2023-04-01T08:30:30;18.41;;;14.0;;
62457;SDS011;48509;52.122;5.250;2023-04-01T08:32:17;21.1;;;15.8;;
62457;SDS011;48509;52.122;5.250;2023-04-01T08:37:25;17.5;;;13.3;;
62457;SDS011;48509;52.122;5.250;2023-04-01T08:45:02;24.7;;;16.3;;
62457;SDS011;48509;52.122;5.250;2023-04-01T08:47:42;30.2;;;18.41;;
62457;SDS011;48509;52.122;5.250;2023-04-01T08:51:16;18.3;;;14.2;;
62457;SDS011;48509;52.122;5.250;2023-04-01T08:57:25;33.4;;;19.5;;
62457;SDS011;48509;52.122;5.250;2023-04-01T08:59:24;30.8;;;20.0;;
62457;SDS011;48509;52.122;5.250;2023-04-01T09:02:31;19.3;;;15.0;;
62457;SDS011;48509;52.122;5.250;2023-04-01T09:04:39;25.4;;;17.8;;
62457;SDS011;48509;52.122;5.250;2023-04-01T09:06:37;22.3;;;16.0;;
62457;SDS011;48509;52.122;5.250;2023-04-01T09:13:13;24.3;;;16.5;;
62457;SDS011;48509;52.122;5.250;2023-04-01T09:15:30;23.3;;;16.2;;
62457;SDS011;48509;52.122;5.250;2023-04-01T09:18:48;18.2;;;13.7;;
62457;SDS011;48509;52.122;5.250;2023-04-01T09:21:41;16.61;;;13.6;;
62457;SDS011;48509;52.122;5.250;2023-04-01T09:23:47;24.0;;;16.2;;
62457;SDS011;48509;52.122;5.250;2023-04-01T09:32:23;21.9;;;15.5;;
62457;SDS011;48509;52.122;5.250;2023-04-01T09:43:12;14.5;;;11.2;;
62457;SDS011;48509;52.122;5.250;2023-04-01T09:46:56;20.3;;;13.9;;
62457;SDS011;48509;52.122;5.250;2023-04-01T09:52:12;14.6;;;10.8;;
62457;SDS011;48509;52.122;5.250;2023-04-01T09:59:16;12.9;;;10.3;;
62457;SDS011;48509;52.122;5.250;2023-04-01T10:01:24;11.4;;;9.21;;
62457;SDS011;48509;52.122;5.250;2023-04-01T10:06:09;10.21;;;8.2;;
62457;SDS011;48509;52.122;5.250;2023-04-01T10:09:40;9.81;;;7.4;;
62457;SDS011;48509;52.122;5.250;2023-04-01T10:16:46;7.3;;;6.4;;
62457;SDS011;48509;52.122;5.250;2023-04-01T10:20:26;10.6;;;9.1;;
62457;SDS011;48509;52.122;5.250;2023-04-01T10:29:35;7.4;;;5.9;;
62457;SDS011;48509;52.122;5.250;2023-04-01T10:32:50;10.3;;;7.5;;
62457;SDS011;48509;52.122;5.250;2023-04-01T10:36:42;9.21;;;8.1;;
62457;SDS011;48509;52.122;5.250;2023-04-01T10:45:25;11.6;;;9.31;;
62457;SDS011;48509;52.122;5.250;2023-04-01T10:49:30;13.2;;;9.31;;
62457;SDS011;48509;52.122;5.250;2023-04-01T10:52:47;11.0;;;8.9;;
62457;SDS011;48509;52.122;5.250;2023-04-01T10:55:59;11.3;;;9.9;;
62457;SDS011;48509;52.122;5.250;2023-04-01T10:59:02;10.0;;;8.6;;
62457;SDS011;48509;52.122;5.250;2023-04-01T11:05:28;13.4;;;10.0;;
62457;SDS011;48509;52.122;5.250;2023-04-01T11:06:26;11.0;;;9.9;;
62457;SDS011;48509;52.122;5.250;2023-04-01T11:07:19;11.0;;;9.9;;
62457;SDS011;48509;52.122;5.250;2023-04-01T11:12:17;8.5;;;7.6;;
62457;SDS011;48509;52.122;5.250;2023-04-01T11:13:33;8.5;;;7.6;;
62457;SDS011;48509;52.122;5.250;2023-04-01T11:14:20;8.5;;;7.6;;
62457;SDS011;48509;52.122;5.250;2023-04-01T11:16:25;8.5;;;7.6;;
62457;SDS011;48509;52.122;5.250;2023-04-01T11:21:20;8.0;;;6.7;;
62457;SDS011;48509;52.122;5.250;2023-04-01T11:27:56;5.9;;;5.4;;
62457;SDS011;48509;52.122;5.250;2023-04-01T11:32:05;6.3;;;5.6;;
62457;SDS011;48509;52.122;5.250;2023-04-01T11:35:45;4.7;;;4.3;;
62457;SDS011;48509;52.122;5.250;2023-04-01T11:38:03;6.1;;;5.5;;
62457;SDS011;48509;52.122;5.250;2023-04-01T11:43:29;5.6;;;5.11;;
62457;SDS011;48509;52.122;5.250;2023-04-01T11:47:19;6.1;;;5.5;;
62457;SDS011;48509;52.122;5.250;2023-04-01T11:49:24;6.6;;;5.9;;
62457;SDS011;48509;52.122;5.250;2023-04-01T11:52:18;5.5;;;5.0;;
62457;SDS011;48509;52.122;5.250;2023-04-01T11:54:03;6.0;;;5.0;;
62457;SDS011;48509;52.122;5.250;2023-04-01T11:57:50;5.3;;;4.8;;
62457;SDS011;48509;52.122;5.250;2023-04-01T12:01:43;5.2;;;4.61;;
62457;SDS011;48509;52.122;5.250;2023-04-01T12:03:35;6.5;;;5.9;;
62457;SDS011;48509;52.122;5.250;2023-04-01T12:07:50;7.4;;;6.7;;
62457;SDS011;48509;52.122;5.250;2023-04-01T12:13:14;7.5;;;6.9;;
62457;SDS011;48509;52.122;5.250;2023-04-01T12:15:03;7.9;;;7.2;;
62457;SDS011;48509;52.122;5.250;2023-04-01T12:18:40;8.9;;;8.0;;
62457;SDS011;48509;52.122;5.250;2023-04-01T12:24:37;8.31;;;7.6;;
62457;SDS011;48509;52.122;5.250;2023-04-01T12:31:01;9.5;;;8.5;;
62457;SDS011;48509;52.122;5.250;2023-04-01T12:34:45;12.2;;;10.1;;
62457;SDS011;48509;52.122;5.250;2023-04-01T12:38:30;10.0;;;8.9;;
62457;SDS011;48509;52.122;5.250;2023-04-01T12:40:25;10.0;;;8.0;;
62457;SDS011;48509;52.122;5.250;2023-04-01T12:43:10;6.9;;;6.3;;
62457;SDS011;48509;52.122;5.250;2023-04-01T12:47:27;5.3;;;4.91;;
62457;SDS011;48509;52.122;5.250;2023-04-01T12:51:36;9.9;;;8.9;;
62457;SDS011;48509;52.122;5.250;2023-04-01T12:54:07;9.1;;;8.2;;
62457;SDS011;48509;52.122;5.250;2023-04-01T12:57:57;10.7;;;9.6;;
62457;SDS011;48509;52.122;5.250;2023-04-01T13:01:35;14.5;;;11.8;;
62457;SDS011;48509;52.122;5.250;2023-04-01T13:03:47;16.61;;;14.4;;
62457;SDS011;48509;52.122;5.250;2023-04-01T13:13:00;21.9;;;17.41;;
62457;SDS011;48509;52.122;5.250;2023-04-01T13:15:28;14.9;;;13.3;;
62457;SDS011;48509;52.122;5.250;2023-04-01T13:17:13;16.11;;;13.8;;
62457;SDS011;48509;52.122;5.250;2023-04-01T13:18:58;16.11;;;13.8;;
62457;SDS011;48509;52.122;5.250;2023-04-01T13:20:43;17.0;;;14.1;;
62457;SDS011;48509;52.122;5.250;2023-04-01T13:24:25;15.4;;;12.7;;
62457;SDS011;48509;52.122;5.250;2023-04-01T13:26:14;11.6;;;10.3;;
62457;SDS011;48509;52.122;5.250;2023-04-01T13:29:45;15.7;;;12.4;;
62457;SDS011;48509;52.122;5.250;2023-04-01T13:31:50;10.5;;;9.4;;
62457;SDS011;48509;52.122;5.250;2023-04-01T13:33:42;9.6;;;8.6;;
62457;SDS011;48509;52.122;5.250;2023-04-01T13:35:28;8.4;;;7.6;;
62457;SDS011;48509;52.122;5.250;2023-04-01T13:41:10;8.1;;;7.3;;
62457;SDS011;48509;52.122;5.250;2023-04-01T13:42:58;8.71;;;7.8;;
62457;SDS011;48509;52.122;5.250;2023-04-01T13:46:34;8.0;;;7.2;;
62457;SDS011;48509;52.122;5.250;2023-04-01T13:50:13;10.21;;;6.3;;
62457;SDS011;48509;52.122;5.250;2023-04-01T13:52:12;7.6;;;6.5;;
62457;SDS011;48509;52.122;5.250;2023-04-01T13:56:33;5.8;;;5.3;;
62457;SDS011;48509;52.122;5.250;2023-04-01T13:58:55;7.5;;;6.8;;
62457;SDS011;48509;52.122;5.250;2023-04-01T14:04:49;5.6;;;5.11;;
62457;SDS011;48509;52.122;5.250;2023-04-01T14:14:09;5.7;;;5.0;;
62457;SDS011;48509;52.122;5.250;2023-04-01T14:17:54;6.7;;;6.1;;
62457;SDS011;48509;52.122;5.250;2023-04-01T14:19:51;7.0;;;6.3;;
62457;SDS011;48509;52.122;5.250;2023-04-01T14:21:53;9.31;;;6.5;;
62457;SDS011;48509;52.122;5.250;2023-04-01T14:29:12;9.71;;;8.0;;
62457;SDS011;48509;52.122;5.250;2023-04-01T14:33:21;10.1;;;8.0;;
62457;SDS011;48509;52.122;5.250;2023-04-01T14:35:36;10.8;;;9.5;;
62457;SDS011;48509;52.122;5.250;2023-04-01T14:50:28;9.6;;;8.71;;
62457;SDS011;48509;52.122;5.250;2023-04-01T14:52:16;12.5;;;10.6;;
62457;SDS011;48509;52.122;5.250;2023-04-01T14:54:03;10.5;;;9.21;;
62457;SDS011;48509;52.122;5.250;2023-04-01T14:57:27;9.4;;;8.6;;
62457;SDS011;48509;52.122;5.250;2023-04-01T14:59:08;14.3;;;11.0;;
62457;SDS011;48509;52.122;5.250;2023-04-01T15:01:07;12.8;;;10.4;;
62457;SDS011;48509;52.122;5.250;2023-04-01T15:04:42;9.9;;;8.9;;
62457;SDS011;48509;52.122;5.250;2023-04-01T15:08:32;9.6;;;8.2;;
62457;SDS011;48509;52.122;5.250;2023-04-01T15:14:20;7.1;;;6.5;;
62457;SDS011;48509;52.122;5.250;2023-04-01T15:16:13;7.7;;;7.0;;
62457;SDS011;48509;52.122;5.250;2023-04-01T15:19:49;8.4;;;7.6;;
62457;SDS011;48509;52.122;5.250;2023-04-01T15:21:45;8.1;;;7.3;;
62457;SDS011;48509;52.122;5.250;2023-04-01T15:25:31;8.2;;;7.5;;
62457;SDS011;48509;52.122;5.250;2023-04-01T15:27:24;6.9;;;6.3;;
62457;SDS011;48509;52.122;5.250;2023-04-01T15:35:31;6.0;;;5.5;;
62457;SDS011;48509;52.122;5.250;2023-04-01T15:37:20;7.1;;;6.4;;
62457;SDS011;48509;52.122;5.250;2023-04-01T15:39:11;6.3;;;5.7;;
62457;SDS011;48509;52.122;5.250;2023-04-01T15:40:54;6.6;;;5.9;;
62457;SDS011;48509;52.122;5.250;2023-04-01T15:44:37;6.5;;;5.9;;
62457;SDS011;48509;52.122;5.250;2023-04-01T15:52:25;6.0;;;5.5;;
62457;SDS011;48509;52.122;5.250;2023-04-01T15:54:24;5.7;;;5.2;;
62457;SDS011;48509;52.122;5.250;2023-04-01T15:57:01;6.7;;;6.0;;
62457;SDS011;48509;52.122;5.250;2023-04-01T15:58:58;6.2;;;5.7;;
62457;SDS011;48509;52.122;5.250;2023-04-01T16:08:26;6.5;;;5.8;;
62457;SDS011;48509;52.122;5.250;2023-04-01T16:11:33;7.3;;;6.6;;
62457;SDS011;48509;52.122;5.250;2023-04-01T16:15:13;7.8;;;7.0;;
62457;SDS011;48509;52.122;5.250;2023-04-01T16:17:05;5.8;;;4.7;;
62457;SDS011;48509;52.122;5.250;2023-04-01T16:18:58;7.1;;;6.4;;
62457;SDS011;48509;52.122;5.250;2023-04-01T16:20:53;7.6;;;6.9;;
62457;SDS011;48509;52.122;5.250;2023-04-01T16:22:35;6.7;;;6.1;;
62457;SDS011;48509;52.122;5.250;2023-04-01T16:29:32;3.9;;;3.6;;
62457;SDS011;48509;52.122;5.250;2023-04-01T16:33:10;4.41;;;4.0;;
62457;SDS011;48509;52.122;5.250;2023-04-01T16:40:13;4.5;;;4.1;;
62457;SDS011;48509;52.122;5.250;2023-04-01T16:42:09;4.61;;;4.2;;
62457;SDS011;48509;52.122;5.250;2023-04-01T16:44:09;3.9;;;3.6;;
62457;SDS011;48509;52.122;5.250;2023-04-01T16:56:22;3.2;;;3.0;;
62457;SDS011;48509;52.122;5.250;2023-04-01T16:57:59;2.8;;;2.6;;
62457;SDS011;48509;52.122;5.250;2023-04-01T17:06:36;2.9;;;2.7;;
62457;SDS011;48509;52.122;5.250;2023-04-01T17:08:24;3.7;;;3.4;;
62457;SDS011;48509;52.122;5.250;2023-04-01T17:12:10;4.5;;;4.2;;
62457;SDS011;48509;52.122;5.250;2023-04-01T17:15:51;5.8;;;5.4;;
62457;SDS011;48509;52.122;5.250;2023-04-01T17:19:30;5.11;;;4.7;;
62457;SDS011;48509;52.122;5.250;2023-04-01T17:23:21;4.7;;;4.3;;
62457;SDS011;48509;52.122;5.250;2023-04-01T17:25:09;4.8;;;4.3;;
62457;SDS011;48509;52.122;5.250;2023-04-01T17:28:50;4.91;;;4.5;;
62457;SDS011;48509;52.122;5.250;2023-04-01T17:32:15;5.2;;;4.7;;
62457;SDS011;48509;52.122;5.250;2023-04-01T17:36:14;4.0;;;3.7;;
62457;SDS011;48509;52.122;5.250;2023-04-01T17:41:50;3.4;;;3.0;;
62457;SDS011;48509;52.122;5.250;2023-04-01T17:49:07;3.2;;;3.0;;
62457;SDS011;48509;52.122;5.250;2023-04-01T17:54:50;4.5;;;4.1;;
62457;SDS011;48509;52.122;5.250;2023-04-01T17:58:28;5.2;;;4.8;;
62457;SDS011;48509;52.122;5.250;2023-04-01T18:07:44;6.1;;;5.5;;
62457;SDS011;48509;52.122;5.250;2023-04-01T18:16:25;4.7;;;4.3;;
62457;SDS011;48509;52.122;5.250;2023-04-01T18:18:18;5.4;;;5.11;;
62457;SDS011;48509;52.122;5.250;2023-04-01T18:20:17;4.91;;;4.41;;
62457;SDS011;48509;52.122;5.250;2023-04-01T18:22:33;4.3;;;3.9;;
62457;SDS011;48509;52.122;5.250;2023-04-01T18:24:18;4.0;;;3.7;;
62457;SDS011;48509;52.122;5.250;2023-04-01T18:26:02;4.8;;;4.41;;
62457;SDS011;48509;52.122;5.250;2023-04-01T18:27:42;6.2;;;5.6;;
62457;SDS011;48509;52.122;5.250;2023-04-01T18:29:25;5.8;;;5.4;;
62457;SDS011;48509;52.122;5.250;2023-04-01T18:32:55;5.0;;;4.61;;
62457;SDS011;48509;52.122;5.250;2023-04-01T18:34:41;5.4;;;5.0;;
62457;SDS011;48509;52.122;5.250;2023-04-01T18:38:15;5.5;;;5.11;;
62457;SDS011;48509;52.122;5.250;2023-04-01T18:43:36;5.5;;;5.11;;
62457;SDS011;48509;52.122;5.250;2023-04-01T18:48:52;5.9;;;5.4;;
62457;SDS011;48509;52.122;5.250;2023-04-01T18:52:27;5.6;;;5.2;;
62457;SDS011;48509;52.122;5.250;2023-04-01T18:57:38;6.5;;;6.0;;
62457;SDS011;48509;52.122;5.250;2023-04-01T18:59:21;6.0;;;5.6;;
62457;SDS011;48509;52.122;5.250;2023-04-01T19:02:55;6.6;;;6.1;;
62457;SDS011;48509;52.122;5.250;2023-04-01T19:10:11;6.9;;;6.2;;
62457;SDS011;48509;52.122;5.250;2023-04-01T19:23:16;6.9;;;6.3;;
62457;SDS011;48509;52.122;5.250;2023-04-01T19:26:28;5.7;;;5.2;;
62457;SDS011;48509;52.122;5.250;2023-04-01T19:28:16;5.8;;;5.3;;
62457;SDS011;48509;52.122;5.250;2023-04-01T19:32:08;8.2;;;7.0;;
62457;SDS011;48509;52.122;5.250;2023-04-01T19:35:52;8.2;;;7.4;;
62457;SDS011;48509;52.122;5.250;2023-04-01T19:39:31;8.31;;;7.5;;
62457;SDS011;48509;52.122;5.250;2023-04-01T19:43:11;7.5;;;6.7;;
62457;SDS011;48509;52.122;5.250;2023-04-01T19:46:53;8.71;;;7.8;;
62457;SDS011;48509;52.122;5.250;2023-04-01T19:50:31;10.7;;;7.7;;
62457;SDS011;48509;52.122;5.250;2023-04-01T19:52:15;9.5;;;8.5;;
62457;SDS011;48509;52.122;5.250;2023-04-01T19:57:38;9.1;;;8.31;;
62457;SDS011;48509;52.122;5.250;2023-04-01T19:59:23;8.5;;;7.8;;
62457;SDS011;48509;52.122;5.250;2023-04-01T20:02:58;9.1;;;8.2;;
62457;SDS011;48509;52.122;5.250;2023-04-01T20:04:40;9.9;;;8.9;;
62457;SDS011;48509;52.122;5.250;2023-04-01T20:06:20;9.81;;;9.0;;
62457;SDS011;48509;52.122;5.250;2023-04-01T20:08:06;10.7;;;9.6;;
62457;SDS011;48509;52.122;5.250;2023-04-01T20:09:53;9.21;;;8.31;;
62457;SDS011;48509;52.122;5.250;2023-04-01T20:13:33;9.4;;;8.5;;
62457;SDS011;48509;52.122;5.250;2023-04-01T20:18:55;9.21;;;8.31;;
62457;SDS011;48509;52.122;5.250;2023-04-01T20:24:08;9.4;;;8.5;;
62457;SDS011;48509;52.122;5.250;2023-04-01T20:27:40;10.6;;;9.6;;
62457;SDS011;48509;52.122;5.250;2023-04-01T20:29:27;10.3;;;8.4;;
62457;SDS011;48509;52.122;5.250;2023-04-01T20:31:18;10.3;;;9.31;;
62457;SDS011;48509;52.122;5.250;2023-04-01T20:33:32;12.5;;;11.3;;
62457;SDS011;48509;52.122;5.250;2023-04-01T20:35:25;10.5;;;9.5;;
62457;SDS011;48509;52.122;5.250;2023-04-01T20:37:18;13.3;;;10.7;;
62457;SDS011;48509;52.122;5.250;2023-04-01T20:49:20;12.8;;;11.5;;
62457;SDS011;48509;52.122;5.250;2023-04-01T20:51:37;11.0;;;10.0;;
62457;SDS011;48509;52.122;5.250;2023-04-01T20:58:40;11.8;;;9.81;;
62457;SDS011;48509;52.122;5.250;2023-04-01T21:00:31;11.4;;;10.21;;
62457;SDS011;48509;52.122;5.250;2023-04-01T21:02:22;15.0;;;12.8;;
62457;SDS011;48509;52.122;5.250;2023-04-01T21:09:02;9.1;;;8.2;;
62457;SDS011;48509;52.122;5.250;2023-04-01T21:16:33;9.21;;;8.2;;
62457;SDS011;48509;52.122;5.250;2023-04-01T21:25:28;7.8;;;7.1;;
62457;SDS011;48509;52.122;5.250;2023-04-01T21:27:25;8.6;;;7.8;;
62457;SDS011;48509;52.122;5.250;2023-04-01T21:29:24;8.0;;;7.2;;
62457;SDS011;48509;52.122;5.250;2023-04-01T21:47:46;10.4;;;9.21;;
62457;SDS011;48509;52.122;5.250;2023-04-01T21:50:37;10.0;;;9.0;;
62457;SDS011;48509;52.122;5.250;2023-04-01T21:54:22;11.6;;;8.81;;